Margate, FL

3:11 AM EST on November 26, 2014 (GMT -0500)
Margate Elementary School | Change Station
CLOSE
Current Station
Personal Weather Station
Location: Margate, FL
Elevation: 23 ft
Nearby Weather Stations

Elev 23 ft 26.25 °N, 80.22 °W | Updated 5 minutes ago

Mostly Cloudy
Mostly Cloudy
79.3 °F
Feels Like 77 °F
N
0.0
Wind Variable Wind from SSW

Today
High -- | Low -- °F
--% Chance of Precip.
Yesterday
High -- | Low -- °F
Precip. -- in
6:47 AM 5:28 PM
Waxing Crescent, 17% visible
Pressure 29.93 in
Visibility 10.0 miles
Clouds Clear
Heat Index 77 °F
Dew Point Not available.
Humidity Not available.
Rainfall 0.00 in
Snow Depth Not available.
UV 0 out of 12
Pollen 2.40 out of 12
Air Quality Not available.
Flu Activity Not available.
METAR KFXE 260753Z 18007KT 10SM CLR 26/24 A2992 RMK AO2 SLP134 T02610239

More Conditions Fewer Conditions

Pressure 29.93 in
Visibility 10.0 miles
Clouds Clear
Heat Index 77 °F
Dew Point Not available.
Humidity Not available.
Rainfall 0.00 in
Snow Depth Not available.
UV 0 out of 12
Pollen 2.40 out of 12
Air Quality Not available.
Flu Activity Not available.
METAR KFXE 260753Z 18007KT 10SM CLR 26/24 A2992 RMK AO2 SLP134 T02610239

More Conditions Fewer Conditions

Nowcast | as of 1:19 am EST on November 26, 2014

A few showers will develop across Southeast Florida and the adjacent waters...focused along and just off the Miami-Dade and Broward coast. Brief heavy downpours and gusty winds to around 30 mph will accompany the showers as they move quickly off to the northeast.

×

10-Day Weather Forecast

Almanac

Astronomy

Nov. 26, 2014 Rise Set
Actual Time
Civil Twilight
Nautical Twilight
Astronomical Twilight
Moon
Length of Visible Light
Length of Day
Tomorrow will be .
, % of the Moon is Illuminated

Today's Extremes

State Highs State Lows

Community

WunderPhotos

Upload Photos

1,773,694 photos uploaded!

WunderBlogs® & News

Nearby

Air Quality

  Air Quality AQ Index Pollutant
Not available.

Snow Depth

Station Depth Elevation

Earthquake Activity

City Distance Mag. Time & Date
Minimum magnitude displayed is 2.5.

Coastal Water Temperatures

Place Temperature

Nearby Weather Stations